createdAt,value
2022-12-28T00:01:18.555Z,3.80
2022-12-28T00:03:48.212Z,4.10
2022-12-28T00:06:16.505Z,3.83
2022-12-28T00:08:44.093Z,3.70
2022-12-28T00:11:20.413Z,3.83
2022-12-28T00:13:54.644Z,3.97
2022-12-28T00:16:26.598Z,3.80
2022-12-28T00:18:55.953Z,3.90
2022-12-28T00:21:23.539Z,3.40
2022-12-28T00:23:52.163Z,3.23
2022-12-28T00:26:20.568Z,3.90
2022-12-28T00:28:48.552Z,4.17
2022-12-28T00:31:16.688Z,4.17
2022-12-28T00:33:44.744Z,3.50
2022-12-28T00:36:15.513Z,3.83
2022-12-28T00:38:43.525Z,3.80
2022-12-28T00:41:11.965Z,3.77
2022-12-28T00:43:39.709Z,3.77
2022-12-28T00:46:07.302Z,3.63
2022-12-28T00:48:35.484Z,3.73
2022-12-28T00:51:03.904Z,3.50
2022-12-28T00:53:32.743Z,4.00
2022-12-28T00:56:07.939Z,3.97
2022-12-28T00:58:35.689Z,3.90
2022-12-28T01:01:03.475Z,3.90
2022-12-28T01:03:31.726Z,4.17
2022-12-28T01:05:59.416Z,4.43
2022-12-28T01:08:26.896Z,4.00
2022-12-28T01:10:55.964Z,4.00
2022-12-28T01:13:23.458Z,4.07
2022-12-28T01:15:50.958Z,4.30
2022-12-28T01:18:20.284Z,4.20
2022-12-28T01:20:47.759Z,4.17
2022-12-28T01:23:16.624Z,3.90
2022-12-28T01:25:44.159Z,4.00
2022-12-28T01:28:12.945Z,4.00
2022-12-28T01:30:40.416Z,4.30
2022-12-28T01:33:07.866Z,4.20
2022-12-28T01:35:35.795Z,3.87
2022-12-28T01:38:03.304Z,3.90
2022-12-28T01:40:30.809Z,3.80
2022-12-28T01:42:58.309Z,4.13
2022-12-28T01:45:28.740Z,3.90
2022-12-28T01:47:57.292Z,4.27
2022-12-28T01:50:26.594Z,4.33
2022-12-28T01:52:57.123Z,4.00
2022-12-28T01:55:27.744Z,3.93
2022-12-28T01:57:57.462Z,4.10
2022-12-28T02:00:26.757Z,4.27
2022-12-28T02:02:57.981Z,4.03
2022-12-28T02:05:28.423Z,4.67
2022-12-28T02:07:59.671Z,5.40
2022-12-28T02:10:41.399Z,6.00
2022-12-28T02:13:12.638Z,6.83
2022-12-28T02:15:40.237Z,6.20
2022-12-28T02:18:09.359Z,6.00
2022-12-28T02:20:44.527Z,5.63
2022-12-28T02:23:32.298Z,5.30
2022-12-28T02:26:28.064Z,5.53
2022-12-28T02:29:10.210Z,4.63
2022-12-28T02:31:43.033Z,4.50
2022-12-28T02:34:17.562Z,4.40
2022-12-28T02:36:48.478Z,4.50
2022-12-28T02:39:20.218Z,4.70
2022-12-28T02:41:48.952Z,4.87
2022-12-28T02:44:38.993Z,4.40
2022-12-28T02:47:23.997Z,4.20
2022-12-28T02:50:09.741Z,4.00
2022-12-28T02:53:04.132Z,4.20
2022-12-28T02:55:57.751Z,4.17
2022-12-28T02:58:37.291Z,3.93
2022-12-28T03:01:14.701Z,4.10
2022-12-28T03:03:48.292Z,3.90
2022-12-28T03:06:37.618Z,3.90
2022-12-28T03:09:12.331Z,3.70
2022-12-28T03:11:44.714Z,4.00
2022-12-28T03:14:21.138Z,3.60
2022-12-28T03:17:11.361Z,3.53
2022-12-28T03:20:02.308Z,3.73
2022-12-28T03:22:49.070Z,3.37
2022-12-28T03:25:38.272Z,3.63
2022-12-28T03:28:25.351Z,3.70
2022-12-28T03:31:07.084Z,3.40
2022-12-28T03:33:41.918Z,3.53
2022-12-28T03:36:11.833Z,3.50
2022-12-28T03:38:49.547Z,3.00
2022-12-28T03:41:25.126Z,2.77
2022-12-28T03:43:55.665Z,3.10
2022-12-28T03:46:25.864Z,3.03
2022-12-28T03:48:55.153Z,3.30
2022-12-28T03:51:24.010Z,3.07
2022-12-28T03:53:53.022Z,3.00
2022-12-28T03:56:24.560Z,3.20
2022-12-28T03:58:54.918Z,2.70
2022-12-28T04:01:25.409Z,3.17
2022-12-28T04:03:53.152Z,2.87
2022-12-28T04:06:22.076Z,3.00
2022-12-28T04:08:50.373Z,3.10
2022-12-28T04:11:17.960Z,3.10
2022-12-28T04:13:49.998Z,3.17
2022-12-28T04:16:19.186Z,3.03
2022-12-28T04:18:47.281Z,3.03
2022-12-28T04:21:15.867Z,3.17
2022-12-28T04:23:54.073Z,3.20
2022-12-28T04:26:23.063Z,3.57
2022-12-28T04:28:53.394Z,3.37
2022-12-28T04:31:32.755Z,3.50
2022-12-28T04:34:07.161Z,3.90
2022-12-28T04:36:39.317Z,3.73
2022-12-28T04:39:12.849Z,3.40
2022-12-28T04:41:41.023Z,3.27
2022-12-28T04:44:08.484Z,2.80
2022-12-28T04:46:35.974Z,3.07
2022-12-28T04:49:03.574Z,3.30
2022-12-28T04:51:31.902Z,3.13
2022-12-28T04:53:59.556Z,3.20
2022-12-28T04:56:29.002Z,3.10
2022-12-28T04:58:57.396Z,2.87
2022-12-28T05:01:25.145Z,3.00
2022-12-28T05:03:56.559Z,3.47
2022-12-28T05:06:27.538Z,3.33
2022-12-28T05:08:56.278Z,3.10
2022-12-28T05:11:25.597Z,3.00
2022-12-28T05:13:54.620Z,2.83
2022-12-28T05:16:24.079Z,3.27
2022-12-28T05:18:51.827Z,3.60
2022-12-28T05:21:21.007Z,3.10
2022-12-28T05:23:49.631Z,3.40
2022-12-28T05:26:20.017Z,4.00
2022-12-28T05:28:48.123Z,3.70
2022-12-28T05:31:19.212Z,3.40
2022-12-28T07:48:21.429Z,2.20
2022-12-28T07:57:05.399Z,1.97
2022-12-28T07:59:34.964Z,2.30
2022-12-28T08:05:03.149Z,2.30
2022-12-28T08:10:34.636Z,1.87
2022-12-28T09:10:24.274Z,1.70
2022-12-28T09:54:22.898Z,1.90
2022-12-28T10:09:05.542Z,1.67
2022-12-28T10:11:38.214Z,1.90
2022-12-28T10:14:27.194Z,1.87
2022-12-28T10:19:59.595Z,1.80
2022-12-28T10:38:14.449Z,1.93
2022-12-28T12:01:57.935Z,2.63
2022-12-28T12:04:45.189Z,2.47
2022-12-28T12:10:27.988Z,2.40
2022-12-28T12:16:04.168Z,2.47
2022-12-28T12:18:41.320Z,2.10
2022-12-28T12:21:15.550Z,2.30
2022-12-28T12:23:47.285Z,2.03
2022-12-28T12:26:20.857Z,2.27
2022-12-28T12:28:50.236Z,1.90
2022-12-28T12:31:26.077Z,2.10
2022-12-28T12:33:59.501Z,2.07
2022-12-28T12:36:37.988Z,2.10
2022-12-28T12:39:19.095Z,2.37
2022-12-28T12:41:56.113Z,2.50
2022-12-28T12:44:34.253Z,2.23
2022-12-28T12:47:19.370Z,2.40
2022-12-28T12:50:18.670Z,2.03
2022-12-28T12:53:00.966Z,2.10
2022-12-28T12:55:41.384Z,2.40
2022-12-28T12:58:19.514Z,1.80
2022-12-28T13:00:53.140Z,2.23
2022-12-28T13:03:28.443Z,2.30
2022-12-28T13:05:58.828Z,2.47
2022-12-28T13:08:27.844Z,2.30
2022-12-28T13:10:56.156Z,2.20
2022-12-28T13:13:30.221Z,1.87
2022-12-28T13:16:02.967Z,2.00
2022-12-28T13:18:46.456Z,1.70
2022-12-28T13:21:20.472Z,2.00
2022-12-28T13:23:48.533Z,1.90
2022-12-28T13:26:17.276Z,1.80
2022-12-28T13:28:50.965Z,1.80
2022-12-28T13:31:20.228Z,1.83
2022-12-28T13:33:58.444Z,1.80
2022-12-28T13:36:27.768Z,2.03
2022-12-28T13:39:09.717Z,1.90
2022-12-28T13:41:38.408Z,2.13
2022-12-28T13:44:17.275Z,1.90
2022-12-28T13:46:47.970Z,1.80
2022-12-28T13:49:15.556Z,1.90
2022-12-28T13:51:49.739Z,2.10
2022-12-28T13:54:20.574Z,1.97
2022-12-28T13:56:48.125Z,2.20
2022-12-28T13:59:18.068Z,2.00
2022-12-28T14:01:49.611Z,2.03
2022-12-28T14:07:13.564Z,2.10
2022-12-28T14:09:41.232Z,2.07
2022-12-28T14:12:09.108Z,1.90
2022-12-28T14:14:36.763Z,2.00
2022-12-28T14:17:04.448Z,2.50
2022-12-28T14:19:32.072Z,2.30
2022-12-28T14:21:59.620Z,2.30
2022-12-28T14:24:28.471Z,2.70
2022-12-28T14:26:58.553Z,2.57
2022-12-28T14:56:44.718Z,2.43
2022-12-28T15:17:44.280Z,2.80
2022-12-28T15:20:14.452Z,2.67
2022-12-28T15:22:42.467Z,2.33
2022-12-28T15:25:11.480Z,2.50
2022-12-28T15:27:39.948Z,2.40
2022-12-28T15:30:11.927Z,2.50
2022-12-28T15:32:42.348Z,2.37
2022-12-28T15:35:10.362Z,2.40
2022-12-28T15:37:39.892Z,2.70
2022-12-28T15:40:08.899Z,2.70
2022-12-28T15:42:40.286Z,2.50
2022-12-28T15:45:12.734Z,2.97
2022-12-28T15:47:41.447Z,3.10
2022-12-28T15:50:10.524Z,2.60
2022-12-28T15:52:39.756Z,2.70
2022-12-28T15:55:07.982Z,2.70
2022-12-28T15:57:35.577Z,2.77
2022-12-28T16:00:03.961Z,3.00
2022-12-28T16:02:32.530Z,2.93
2022-12-28T16:05:00.303Z,3.10
2022-12-28T16:07:28.188Z,3.13
2022-12-28T16:09:57.172Z,3.17
2022-12-28T16:12:24.845Z,3.17
2022-12-28T16:14:52.661Z,2.80
2022-12-28T16:17:20.469Z,3.40
2022-12-28T16:19:48.029Z,3.20
2022-12-28T16:22:15.680Z,3.60
2022-12-28T16:24:43.409Z,3.47
2022-12-28T16:27:12.284Z,3.30
2022-12-28T16:29:40.052Z,2.90
2022-12-28T16:32:07.719Z,3.50
2022-12-28T16:34:35.407Z,3.33
2022-12-28T16:37:03.031Z,3.13
2022-12-28T16:39:31.090Z,3.40
2022-12-28T16:41:59.388Z,3.23
2022-12-28T16:44:29.330Z,3.00
2022-12-28T16:46:58.204Z,2.67
2022-12-28T16:49:25.955Z,2.83
2022-12-28T16:51:53.502Z,3.30
2022-12-28T16:54:23.268Z,3.13
2022-12-28T16:56:51.786Z,2.90
2022-12-28T16:59:21.169Z,2.97
2022-12-28T17:01:50.317Z,2.83
2022-12-28T17:04:17.895Z,3.00
2022-12-28T17:06:46.471Z,2.67
2022-12-28T17:09:14.728Z,2.80
2022-12-28T17:11:42.550Z,3.00
2022-12-28T17:14:13.149Z,3.10
2022-12-28T17:16:40.819Z,2.60
2022-12-28T17:19:09.686Z,2.93
2022-12-28T17:21:37.199Z,3.00
2022-12-28T17:24:05.599Z,3.03
2022-12-28T17:26:33.149Z,2.90
2022-12-28T17:29:00.885Z,2.90
2022-12-28T17:31:28.711Z,3.00
2022-12-28T17:33:58.540Z,3.17
2022-12-28T17:36:27.841Z,2.93
2022-12-28T17:38:55.373Z,3.13
2022-12-28T17:41:24.411Z,3.47
2022-12-28T17:43:53.929Z,2.90
2022-12-28T17:46:21.825Z,2.90
2022-12-28T17:48:49.535Z,3.60
2022-12-28T17:51:17.141Z,3.43
2022-12-28T17:53:46.023Z,3.30
2022-12-28T17:56:15.615Z,3.50
2022-12-28T17:58:44.599Z,2.90
2022-12-28T18:01:13.240Z,3.20
2022-12-28T18:03:41.373Z,2.90
2022-12-28T18:06:09.045Z,3.40
2022-12-28T18:08:36.821Z,3.50
2022-12-28T18:11:08.442Z,3.17
2022-12-28T18:13:36.126Z,3.20
2022-12-28T18:17:40.921Z,2.87
2022-12-28T18:20:09.827Z,3.50
2022-12-28T18:22:37.338Z,3.03
2022-12-28T18:26:47.688Z,3.63
2022-12-28T18:29:15.194Z,3.33
2022-12-28T18:31:42.688Z,3.50
2022-12-28T18:34:10.195Z,3.07
2022-12-28T18:36:37.647Z,3.27
2022-12-28T18:39:05.339Z,3.67
2022-12-28T18:41:34.373Z,3.37
2022-12-28T18:44:05.010Z,3.13
2022-12-28T18:46:32.612Z,3.63
2022-12-28T18:49:01.550Z,3.60
2022-12-28T18:51:29.113Z,3.70
2022-12-28T18:53:56.612Z,3.77
2022-12-28T18:56:24.171Z,4.07
2022-12-28T18:58:53.327Z,4.40
2022-12-28T19:06:37.515Z,3.93
2022-12-28T19:09:06.207Z,4.10
2022-12-28T19:11:34.431Z,3.57
2022-12-28T19:14:02.928Z,3.33
2022-12-28T19:16:31.783Z,3.27
2022-12-28T19:19:00.311Z,3.30
2022-12-28T20:22:11.861Z,2.10
2022-12-28T21:12:41.147Z,1.80
2022-12-28T21:21:25.776Z,2.27
2022-12-28T21:26:56.515Z,2.23
2022-12-28T21:29:26.191Z,2.27
2022-12-28T21:31:54.376Z,2.13
2022-12-28T21:34:22.579Z,2.10
2022-12-28T21:36:51.528Z,2.00
2022-12-28T21:39:19.371Z,2.17
2022-12-28T21:41:49.877Z,1.90
2022-12-28T21:44:19.908Z,2.20
2022-12-28T21:46:47.694Z,2.03
2022-12-28T21:49:15.279Z,2.33
2022-12-28T21:51:42.869Z,2.47
2022-12-28T21:54:13.619Z,2.30
2022-12-28T21:56:42.240Z,2.00
2022-12-28T21:59:11.079Z,2.00
2022-12-28T22:01:57.004Z,2.20
2022-12-28T22:04:42.559Z,1.93
2022-12-28T22:07:11.679Z,2.03
2022-12-28T22:09:58.481Z,2.00
2022-12-28T22:12:36.135Z,1.93
2022-12-28T22:15:30.576Z,2.17
2022-12-28T22:17:59.980Z,1.80
2022-12-28T22:20:28.333Z,1.73
2022-12-28T22:22:56.862Z,2.20
2022-12-28T22:25:26.171Z,1.80
2022-12-28T22:27:53.775Z,1.80
2022-12-28T22:30:21.432Z,1.90
2022-12-28T22:32:49.020Z,2.00
2022-12-28T22:35:18.634Z,2.00
2022-12-28T22:37:46.350Z,1.90
2022-12-28T22:40:14.409Z,2.00
2022-12-28T22:42:44.453Z,2.03
2022-12-28T22:45:12.953Z,2.10
2022-12-28T22:47:41.076Z,1.70
2022-12-28T22:50:11.076Z,2.30
2022-12-28T22:52:38.608Z,2.07
2022-12-28T22:55:06.878Z,1.67
2022-12-28T22:57:34.876Z,1.97
2022-12-28T23:00:04.359Z,2.07
2022-12-28T23:02:32.033Z,2.07
2022-12-28T23:04:59.859Z,2.10
2022-12-28T23:07:27.461Z,2.07
2022-12-28T23:09:54.978Z,2.10
2022-12-28T23:12:22.558Z,1.93
2022-12-28T23:15:07.965Z,1.83
2022-12-28T23:17:37.060Z,1.90
2022-12-28T23:20:22.423Z,2.00
2022-12-28T23:23:07.018Z,2.27
2022-12-28T23:25:52.166Z,1.80
2022-12-28T23:28:19.677Z,2.00
2022-12-28T23:30:49.006Z,1.93
2022-12-28T23:33:18.645Z,2.10
2022-12-28T23:35:46.302Z,2.17
2022-12-28T23:38:13.807Z,1.83
2022-12-28T23:40:42.037Z,1.80
2022-12-28T23:43:09.620Z,2.10
2022-12-28T23:45:37.352Z,2.00
2022-12-28T23:48:05.631Z,2.03
2022-12-28T23:50:34.582Z,1.90
2022-12-28T23:53:02.097Z,2.07
2022-12-28T23:55:29.900Z,2.13
2022-12-28T23:57:57.446Z,1.90
